.
WxDataArchive / Data Records for 2012-01-13
2012-01-12 January 2012 2012-01-14

Data Records for Friday, 13 January 2012

Time	Temp	Chill	HIndex	Humid	Dewpt	 Wind 	HiWind	WindDir	Rain 	Barom 
-----	----	-----	------	-----	-----	------	------	-------	-----	----- 
00:00	16.9	16.9	16.9	76	10.7	2	7	248	0.00	29.501 
00:05	16.9	10.6	16.9	76	10.7	4	12	248	0.00	29.501 
00:10	16.7	8.0	16.7	76	10.5	6	14	270	0.00	29.501 
00:15	16.7	8.0	16.7	76	10.5	6	15	248	0.00	29.501 
00:20	16.7	9.1	16.7	76	10.5	5	11	248	0.00	29.501 
00:25	16.7	10.4	16.7	76	10.5	4	12	248	0.00	29.501 
00:30	16.7	10.4	16.7	77	10.8	4	13	248	0.00	29.500 
00:35	16.7	10.4	16.7	77	10.8	4	12	248	0.00	29.500 
00:40	16.7	9.1	16.7	76	10.5	5	12	248	0.00	29.500 
00:45	16.7	9.1	16.7	76	10.5	5	13	248	0.00	29.496 
00:50	16.7	9.1	16.7	77	10.8	5	13	248	0.00	29.496 
00:55	16.7	9.1	16.7	76	10.5	5	13	248	0.00	29.496 
01:00	16.7	9.1	16.7	77	10.8	5	15	248	0.00	29.494 
01:05	16.7	9.1	16.7	77	10.8	5	15	248	0.00	29.494 
01:10	16.9	10.6	16.9	77	11.0	4	13	248	0.00	29.494 
01:15	16.9	10.6	16.9	77	11.0	4	14	248	0.00	29.491 
01:20	16.9	16.9	16.9	78	11.3	3	9	248	0.00	29.491 
01:25	16.9	10.6	16.9	78	11.3	4	11	248	0.00	29.491 
01:30	16.9	16.9	16.9	78	11.3	3	10	248	0.00	29.486 
01:35	16.9	10.6	16.9	78	11.3	4	11	248	0.00	29.486 
01:40	16.9	10.6	16.9	78	11.3	4	11	248	0.00	29.486 
01:45	17.0	10.7	17.0	78	11.3	4	14	248	0.00	29.490 
01:50	17.0	17.0	17.0	78	11.3	3	9	270	0.00	29.490 
01:55	17.0	9.5	17.0	78	11.3	5	11	248	0.00	29.490 
02:00	17.0	9.5	17.0	78	11.3	5	12	248	0.00	29.490 
02:05	17.0	9.5	17.0	78	11.3	5	14	248	0.00	29.490 
02:10	17.0	8.4	17.0	77	11.1	6	13	270	0.00	29.490 
02:15	17.0	9.5	17.0	78	11.3	5	16	248	0.00	29.491 
02:20	17.0	10.7	17.0	79	11.6	4	12	248	0.00	29.491 
02:25	16.9	9.3	16.9	81	12.1	5	11	248	0.00	29.491 
02:30	16.7	10.4	16.7	82	12.2	4	12	248	0.00	29.501 
02:35	16.5	8.9	16.5	84	12.5	5	11	248	0.00	29.501 
02:40	16.4	8.8	16.4	84	12.4	5	11	248	0.00	29.501 
02:45	16.4	8.8	16.4	85	12.7	5	11	248	0.00	29.501 
02:50	16.2	8.5	16.2	85	12.5	5	16	248	0.00	29.501 
02:55	16.2	8.5	16.2	85	12.5	5	11	248	0.00	29.501 
03:00	16.2	8.5	16.2	85	12.5	5	12	248	0.00	29.503 
03:05	16.2	8.5	16.2	86	12.8	5	12	248	0.00	29.503 
03:10	16.2	8.5	16.2	86	12.8	5	12	248	0.00	29.503 
03:15	16.4	7.7	16.4	86	13.0	6	16	248	0.00	29.505 
03:20	16.4	7.7	16.4	86	13.0	6	13	248	0.00	29.505 
03:25	16.4	8.8	16.4	86	13.0	5	13	248	0.00	29.505 
03:30	16.4	8.8	16.4	86	13.0	5	10	270	0.00	29.510 
03:35	16.4	7.7	16.4	86	13.0	6	12	270	0.00	29.510 
03:40	16.4	8.8	16.4	86	13.0	5	15	270	0.00	29.510 
03:45	16.4	7.7	16.4	86	13.0	6	13	270	0.00	29.516 
03:50	16.4	7.7	16.4	86	13.0	6	18	270	0.00	29.516 
03:55	16.4	10.1	16.4	86	13.0	4	12	248	0.00	29.516 
04:00	16.4	7.7	16.4	86	13.0	6	16	248	0.00	29.516 
04:05	16.4	7.7	16.4	86	13.0	6	16	248	0.00	29.516 
04:10	16.4	8.8	16.4	86	13.0	5	12	270	0.00	29.516 
04:15	16.2	8.5	16.2	87	13.0	5	12	248	0.00	29.526 
04:20	16.2	8.5	16.2	87	13.0	5	13	270	0.00	29.526 
04:25	16.2	7.4	16.2	87	13.0	6	13	270	0.00	29.526 
04:30	16.2	7.4	16.2	88	13.3	6	13	270	0.00	29.529 
04:35	16.2	9.8	16.2	88	13.3	4	11	270	0.00	29.529 
04:40	16.1	8.4	16.1	88	13.2	5	11	270	0.00	29.529 
04:45	16.1	8.4	16.1	88	13.2	5	12	270	0.00	29.537 
04:50	16.1	8.4	16.1	88	13.2	5	14	270	0.00	29.537 
04:55	16.1	8.4	16.1	88	13.2	5	12	270	0.00	29.537 
05:00	16.1	8.4	16.1	88	13.2	5	13	270	0.00	29.546 
05:05	16.1	8.4	16.1	88	13.2	5	17	270	0.00	29.546 
05:10	16.1	8.4	16.1	88	13.2	5	11	270	0.00	29.546 
05:15	16.1	8.4	16.1	88	13.2	5	10	270	0.00	29.552 
05:20	16.1	9.7	16.1	87	12.9	4	9	248	0.00	29.552 
05:25	16.1	7.3	16.1	87	12.9	6	14	270	0.00	29.552 
05:30	16.1	8.4	16.1	87	12.9	5	9	270	0.00	29.559 
05:35	16.1	8.4	16.1	87	12.9	5	11	270	0.00	29.559 
05:40	16.1	7.3	16.1	87	12.9	6	11	270	0.00	29.559 
05:45	16.1	8.4	16.1	87	12.9	5	10	270	0.00	29.567 
05:50	15.9	7.1	15.9	87	12.7	6	14	270	0.00	29.567 
05:55	15.9	8.2	15.9	87	12.7	5	15	270	0.00	29.567 
06:00	15.9	8.2	15.9	87	12.7	5	10	270	0.00	29.583 
06:05	15.9	8.2	15.9	87	12.7	5	10	248	0.00	29.583 
06:10	15.9	7.1	15.9	87	12.7	6	15	270	0.00	29.583 
06:15	15.9	7.1	15.9	86	12.5	6	14	270	0.00	29.595 
06:20	15.9	8.2	15.9	86	12.5	5	11	270	0.00	29.595 
06:25	15.9	8.2	15.9	86	12.5	5	12	270	0.00	29.595 
06:30	15.9	8.2	15.9	86	12.5	5	12	270	0.00	29.607 
06:35	15.7	7.9	15.7	86	12.3	5	10	270	0.00	29.607 
06:40	15.7	7.9	15.7	86	12.3	5	10	270	0.00	29.607 
06:45	15.7	9.2	15.7	86	12.3	4	9	270	0.00	29.618 
06:50	15.7	6.8	15.7	86	12.3	6	14	270	0.00	29.618 
06:55	15.7	7.9	15.7	85	12.0	5	8	270	0.00	29.618 
07:00	15.7	6.8	15.7	85	12.0	6	11	270	0.00	29.632 
07:05	15.7	7.9	15.7	85	12.0	5	9	270	0.00	29.632 
07:10	15.7	7.9	15.7	85	12.0	5	14	270	0.00	29.632 
07:15	15.7	7.9	15.7	86	12.3	5	10	270	0.00	29.641 
07:20	15.7	7.9	15.7	86	12.3	5	10	270	0.00	29.641 
07:25	15.7	9.2	15.7	86	12.3	4	9	270	0.00	29.641 
07:30	15.7	6.8	15.7	86	12.3	6	12	270	0.00	29.646 
07:35	15.7	9.2	15.7	86	12.3	4	11	270	0.00	29.646 
07:40	15.6	6.7	15.6	85	11.9	6	12	270	0.00	29.646 
07:45	15.6	9.1	15.6	85	11.9	4	9	270	0.00	29.658 
07:50	15.6	9.1	15.6	85	11.9	4	8	270	0.00	29.658 
07:55	15.6	7.8	15.6	85	11.9	5	12	270	0.00	29.658 
08:00	15.6	6.7	15.6	85	11.9	6	11	270	0.00	29.666 
08:05	15.4	8.9	15.4	84	11.4	4	8	270	0.00	29.666 
08:10	15.4	8.9	15.4	84	11.4	4	7	248	0.00	29.666 
08:15	15.2	8.7	15.2	84	11.3	4	7	270	0.00	29.689 
08:20	15.2	8.7	15.2	84	11.3	4	13	270	0.01	29.689 
08:25	15.1	8.6	15.1	84	11.2	4	10	270	0.00	29.689 
08:30	15.1	8.6	15.1	84	11.2	4	7	270	0.00	29.695 
08:35	15.1	8.6	15.1	84	11.2	4	11	248	0.00	29.695 
08:40	15.1	8.6	15.1	83	10.9	4	9	248	0.00	29.695 
08:45	15.1	7.2	15.1	83	10.9	5	10	270	0.00	29.708 
08:50	15.2	8.7	15.2	83	11.0	4	12	270	0.00	29.708 
08:55	15.2	8.7	15.2	83	11.0	4	11	270	0.00	29.708 
09:00	15.4	8.9	15.4	83	11.2	4	9	248	0.00	29.721 
09:05	15.4	8.9	15.4	83	11.2	4	8	248	0.00	29.721 
09:10	15.4	7.6	15.4	83	11.2	5	11	270	0.00	29.721 
09:15	15.4	6.5	15.4	82	10.9	6	12	270	0.00	29.733 
09:20	15.4	7.6	15.4	82	10.9	5	12	248	0.00	29.733 
09:25	15.4	8.9	15.4	82	10.9	4	11	270	0.00	29.733 
09:30	15.6	7.8	15.6	82	11.1	5	14	248	0.00	29.738 
09:35	15.6	7.8	15.6	82	11.1	5	14	270	0.00	29.738 
09:40	15.6	9.1	15.6	82	11.1	4	9	248	0.00	29.738 
09:45	15.7	9.2	15.7	82	11.2	4	10	270	0.00	29.745 
09:50	15.7	7.9	15.7	81	10.9	5	13	248	0.00	29.745 
09:55	15.7	9.2	15.7	81	10.9	4	11	248	0.00	29.745 
10:00	15.7	9.2	15.7	81	10.9	4	10	248	0.00	29.755 
10:05	15.7	9.2	15.7	81	10.9	4	12	248	0.00	29.755 
10:10	15.9	8.2	15.9	81	11.1	5	12	248	0.00	29.755 
10:15	15.9	15.9	15.9	81	11.1	3	10	248	0.00	29.764 
10:20	16.1	9.7	16.1	81	11.3	4	6	248	0.00	29.764 
10:25	16.1	9.7	16.1	82	11.6	4	11	248	0.00	29.764 
10:30	16.1	9.7	16.1	82	11.6	4	9	248	0.00	29.773 
10:35	16.1	9.7	16.1	81	11.3	4	10	248	0.00	29.773 
10:40	16.1	8.4	16.1	81	11.3	5	10	248	0.00	29.773 
10:45	16.2	9.8	16.2	81	11.4	4	12	270	0.00	29.784 
10:50	16.2	9.8	16.2	82	11.7	4	11	248	0.00	29.784 
10:55	16.2	9.8	16.2	82	11.7	4	11	248	0.00	29.784 
11:00	16.4	8.8	16.4	81	11.6	5	10	270	0.00	29.788 
11:05	16.4	10.1	16.4	82	11.9	4	10	248	0.00	29.788 
11:10	16.5	10.2	16.5	82	12.0	4	6	248	0.00	29.788 
11:15	16.5	8.9	16.5	81	11.7	5	13	248	0.00	29.799 
11:20	16.4	7.7	16.4	80	11.3	6	17	270	0.00	29.799 
11:25	16.5	10.2	16.5	80	11.4	4	9	248	0.00	29.799 
11:30	16.7	10.4	16.7	80	11.6	4	11	248	0.00	29.808 
11:35	16.7	8.0	16.7	79	11.3	6	12	248	0.00	29.808 
11:40	16.7	10.4	16.7	79	11.3	4	8	248	0.00	29.808 
11:45	17.0	10.7	17.0	79	11.6	4	11	248	0.00	29.808 
11:50	17.0	9.5	17.0	79	11.6	5	12	270	0.00	29.808 
11:55	17.2	11.0	17.2	79	11.8	4	12	270	0.00	29.808 
12:00	17.3	11.1	17.3	79	11.9	4	10	248	0.00	29.810 
12:05	17.3	11.1	17.3	78	11.6	4	9	248	0.00	29.810 
12:10	17.5	10.0	17.5	78	11.8	5	11	270	0.00	29.810 
12:15	17.5	11.3	17.5	78	11.8	4	15	248	0.00	29.814 
12:20	17.5	9.0	17.5	78	11.8	6	14	248	0.00	29.814 
12:25	17.5	11.3	17.5	78	11.8	4	10	248	0.00	29.814 
12:30	17.7	10.3	17.7	77	11.7	5	12	270	0.00	29.818 
12:35	17.5	11.3	17.5	77	11.5	4	10	248	0.00	29.818 
12:40	17.3	9.8	17.3	77	11.3	5	12	248	0.00	29.818 
12:45	17.2	9.7	17.2	77	11.3	5	12	248	0.00	29.821 
12:50	17.2	9.7	17.2	78	11.5	5	13	248	0.00	29.821 
12:55	17.3	11.1	17.3	78	11.6	4	12	270	0.00	29.821 
13:00	17.5	17.5	17.5	79	12.1	3	7	270	0.00	29.824 
13:05	17.7	10.3	17.7	78	12.0	5	10	270	0.00	29.824 
13:10	17.7	11.6	17.7	78	12.0	4	9	248	0.00	29.824 
13:15	17.8	11.7	17.8	79	12.4	4	9	248	0.00	29.831 
13:20	17.8	11.7	17.8	79	12.4	4	12	248	0.00	29.831 
13:25	18.0	18.0	18.0	79	12.6	3	7	248	0.00	29.831 
13:30	18.1	12.0	18.1	79	12.7	4	12	248	0.00	29.832 
13:35	18.1	10.7	18.1	78	12.4	5	13	248	0.00	29.832 
13:40	18.1	12.0	18.1	79	12.7	4	9	248	0.00	29.832 
13:45	18.1	18.1	18.1	78	12.4	3	7	248	0.00	29.835 
13:50	18.3	18.3	18.3	79	12.9	3	6	248	0.00	29.835 
13:55	18.4	18.4	18.4	79	13.0	3	9	248	0.00	29.835 
14:00	18.4	12.4	18.4	78	12.7	4	12	248	0.00	29.844 
14:05	18.4	12.4	18.4	78	12.7	4	7	248	0.00	29.844 
14:10	18.4	18.4	18.4	78	12.7	3	11	248	0.00	29.844 
14:15	18.6	12.6	18.6	78	12.9	4	11	248	0.00	29.848 
14:20	18.8	12.8	18.8	78	13.1	4	10	248	0.00	29.848 
14:25	18.8	11.6	18.8	77	12.8	5	11	248	0.00	29.848 
14:30	18.8	11.6	18.8	78	13.1	5	10	248	0.00	29.857 
14:35	18.9	12.9	18.9	78	13.2	4	11	248	0.00	29.857 
14:40	19.1	13.2	19.1	78	13.4	4	9	270	0.00	29.857 
14:45	19.1	11.9	19.1	77	13.1	5	10	248	0.00	29.867 
14:50	19.1	13.2	19.1	77	13.1	4	16	248	0.00	29.867 
14:55	18.8	11.6	18.8	77	12.8	5	11	270	0.00	29.867 
15:00	18.8	12.8	18.8	77	12.8	4	10	248	0.00	29.877 
15:05	18.8	11.6	18.8	77	12.8	5	11	248	0.00	29.877 
15:10	18.8	18.8	18.8	77	12.8	3	9	248	0.00	29.877 
15:15	18.9	18.9	18.9	77	12.9	3	5	248	0.00	29.884 
15:20	19.2	19.2	19.2	78	13.5	3	9	248	0.00	29.884 
15:25	19.4	13.5	19.4	77	13.4	4	16	248	0.00	29.884 
15:30	19.2	13.3	19.2	77	13.2	4	9	248	0.00	29.892 
15:35	18.9	11.7	18.9	77	12.9	5	12	248	0.00	29.892 
15:40	18.9	12.9	18.9	77	12.9	4	7	270	0.00	29.892 
15:45	18.9	11.7	18.9	77	12.9	5	16	248	0.00	29.899 
15:50	18.9	12.9	18.9	77	12.9	4	9	248	0.00	29.899 
15:55	18.9	11.7	18.9	77	12.9	5	14	248	0.00	29.899 
16:00	18.9	12.9	18.9	77	12.9	4	10	248	0.00	29.910 
16:05	19.1	19.1	19.1	78	13.4	3	10	248	0.00	29.910 
16:10	19.1	13.2	19.1	78	13.4	4	9	248	0.00	29.910 
16:15	19.1	11.9	19.1	77	13.1	5	11	248	0.00	29.917 
16:20	18.9	11.7	18.9	77	12.9	5	12	248	0.00	29.917 
16:25	18.9	12.9	18.9	77	12.9	4	10	248	0.00	29.917 
16:30	18.8	12.8	18.8	77	12.8	4	8	270	0.00	29.926 
16:35	18.8	12.8	18.8	78	13.1	4	10	248	0.00	29.926 
16:40	18.8	12.8	18.8	79	13.4	4	10	248	0.00	29.926 
16:45	18.8	11.6	18.8	79	13.4	5	10	248	0.00	29.941 
16:50	18.6	18.6	18.6	80	13.5	3	7	248	0.00	29.941 
16:55	18.6	18.6	18.6	81	13.8	3	7	248	0.00	29.941 
17:00	18.4	18.4	18.4	82	13.8	3	10	248	0.00	29.948 
17:05	18.4	18.4	18.4	83	14.1	3	6	248	0.00	29.948 
17:10	18.3	12.3	18.3	84	14.3	4	7	248	0.00	29.948 
17:15	18.3	18.3	18.3	84	14.3	3	7	248	0.00	29.957 
17:20	18.3	18.3	18.3	84	14.3	3	7	248	0.00	29.957 
17:25	18.3	18.3	18.3	84	14.3	3	7	270	0.00	29.957 
17:30	18.3	18.3	18.3	84	14.3	3	6	248	0.00	29.965 
17:35	18.3	18.3	18.3	84	14.3	3	6	248	0.00	29.965 
17:40	18.3	18.3	18.3	84	14.3	3	7	248	0.00	29.965 
17:45	18.3	18.3	18.3	84	14.3	3	10	248	0.00	29.972 
17:50	18.4	18.4	18.4	84	14.4	2	5	248	0.00	29.972 
17:55	18.4	18.4	18.4	84	14.4	2	5	248	0.00	29.972 
18:00	18.4	12.4	18.4	85	14.7	4	7	248	0.00	29.975 
18:05	18.4	18.4	18.4	85	14.7	3	7	248	0.00	29.975 
18:10	18.4	12.4	18.4	84	14.4	4	7	248	0.00	29.975 
18:15	18.6	18.6	18.6	84	14.6	3	7	248	0.00	29.988 
18:20	18.6	18.6	18.6	85	14.9	2	6	248	0.00	29.988 
18:25	18.6	18.6	18.6	85	14.9	2	6	248	0.00	29.988 
18:30	18.6	18.6	18.6	85	14.9	3	7	248	0.00	29.991 
18:35	18.6	18.6	18.6	85	14.9	3	7	248	0.00	29.991 
18:40	18.4	18.4	18.4	85	14.7	3	7	248	0.00	29.991 
18:45	18.6	18.6	18.6	85	14.9	2	5	248	0.00	29.993 
18:50	18.6	18.6	18.6	84	14.6	3	9	248	0.00	29.993 
18:55	18.6	18.6	18.6	84	14.6	3	7	248	0.00	29.993 
19:00	18.8	18.8	18.8	84	14.8	3	7	248	0.00	30.002 
19:05	18.8	18.8	18.8	84	14.8	3	6	248	0.00	30.002 
19:10	18.8	18.8	18.8	84	14.8	3	7	248	0.00	30.002 
19:15	18.9	18.9	18.9	84	14.9	3	9	248	0.00	30.008 
19:20	18.9	18.9	18.9	83	14.6	2	10	248	0.00	30.008 
19:25	18.9	18.9	18.9	83	14.6	3	7	248	0.00	30.008 
19:30	18.9	18.9	18.9	83	14.6	3	10	248	0.00	30.017 
19:35	18.9	18.9	18.9	83	14.6	3	7	248	0.00	30.017 
19:40	18.9	18.9	18.9	83	14.6	3	6	248	0.00	30.017 
19:45	18.9	18.9	18.9	83	14.6	2	10	248	0.00	30.021 
19:50	19.1	13.2	19.1	83	14.8	4	11	248	0.00	30.021 
19:55	19.1	19.1	19.1	83	14.8	3	9	248	0.00	30.021 
20:00	19.1	19.1	19.1	83	14.8	3	6	248	0.00	30.024 
20:05	19.1	19.1	19.1	82	14.5	3	6	248	0.00	30.024 
20:10	19.1	19.1	19.1	82	14.5	3	7	248	0.00	30.024 
20:15	19.1	19.1	19.1	82	14.5	3	9	248	0.00	30.024 
20:20	19.1	13.2	19.1	82	14.5	4	11	248	0.00	30.024 
20:25	19.1	19.1	19.1	82	14.5	3	10	248	0.00	30.024 
20:30	19.1	13.2	19.1	82	14.5	4	9	270	0.00	30.029 
20:35	19.1	19.1	19.1	81	14.2	2	4	248	0.00	30.029 
20:40	19.1	19.1	19.1	81	14.2	2	6	248	0.00	30.029 
20:45	19.1	19.1	19.1	81	14.2	3	10	248	0.00	30.035 
20:50	19.1	19.1	19.1	81	14.2	2	7	248	0.00	30.035 
20:55	19.1	19.1	19.1	81	14.2	2	5	248	0.00	30.035 
21:00	19.1	19.1	19.1	81	14.2	3	7	248	0.00	30.034 
21:05	19.1	19.1	19.1	81	14.2	3	7	248	0.00	30.034 
21:10	19.1	19.1	19.1	81	14.2	3	7	248	0.00	30.034 
21:15	19.1	19.1	19.1	82	14.5	2	9	248	0.00	30.036 
21:20	19.1	19.1	19.1	81	14.2	3	6	248	0.00	30.036 
21:25	19.1	19.1	19.1	81	14.2	3	5	248	0.00	30.036 
21:30	19.1	19.1	19.1	81	14.2	2	5	248	0.00	30.036 
21:35	19.1	19.1	19.1	81	14.2	3	7	248	0.00	30.036 
21:40	19.1	19.1	19.1	81	14.2	3	5	248	0.00	30.036 
21:45	19.1	19.1	19.1	81	14.2	3	7	248	0.00	30.036 
21:50	19.1	19.1	19.1	81	14.2	3	7	248	0.00	30.036 
21:55	19.1	19.1	19.1	81	14.2	3	7	248	0.00	30.036 
22:00	19.1	19.1	19.1	82	14.5	3	6	248	0.00	30.037 
22:05	19.1	19.1	19.1	82	14.5	3	6	248	0.00	30.037 
22:10	18.9	18.9	18.9	82	14.3	3	7	270	0.00	30.037 
22:15	18.9	18.9	18.9	81	14.1	3	7	248	0.00	30.038 
22:20	18.9	18.9	18.9	81	14.1	3	9	248	0.00	30.038 
22:25	18.9	18.9	18.9	81	14.1	3	6	248	0.00	30.038 
22:30	18.8	18.8	18.8	81	14.0	3	6	248	0.00	30.045 
22:35	18.8	18.8	18.8	81	14.0	3	9	270	0.00	30.045 
22:40	18.8	18.8	18.8	81	14.0	2	5	248	0.00	30.045 
22:45	18.8	18.8	18.8	81	14.0	2	5	248	0.00	30.049 
22:50	18.6	18.6	18.6	81	13.8	3	6	270	0.00	30.049 
22:55	18.6	18.6	18.6	81	13.8	3	6	270	0.00	30.049 
23:00	18.6	18.6	18.6	81	13.8	3	7	248	0.00	30.051 
23:05	18.6	18.6	18.6	81	13.8	3	5	248	0.00	30.051 
23:10	18.6	18.6	18.6	81	13.8	3	7	248	0.00	30.051 
23:15	18.6	18.6	18.6	81	13.8	3	5	248	0.00	30.053 
23:20	18.6	18.6	18.6	81	13.8	2	5	248	0.00	30.053 
23:25	18.4	18.4	18.4	81	13.6	2	7	248	0.00	30.053 
23:30	18.4	18.4	18.4	81	13.6	3	5	248	0.00	30.055 
23:35	18.4	18.4	18.4	81	13.6	2	6	248	0.00	30.055 
23:40	18.4	18.4	18.4	81	13.6	2	6	270	0.00	30.055 
23:45	18.4	12.4	18.4	81	13.6	4	9	248	0.00	30.057 
23:50	18.4	18.4	18.4	81	13.6	3	6	248	0.00	30.057 
23:55	18.4	18.4	18.4	81	13.6	2	5	248	0.00	30.057 

CoCoRaHS
IN-AL-39
A2 Web Hosting
Creative Commons License
GoDaddy
search engine by freefind advanced

loaded 2018-11-20 09:07:40 • last modified 2010-11-18 10:43:29
Privacy PolicyDisclaimer
• wx.awcolley.com is powered by PmWiki v.2002016 •
• all content (unless otherwise noted) © 2018 A W Colley